sensor_id;sensor_type;location;lat;lon;timestamp;P1;durP1;ratioP1;P2;durP2;ratioP2
11703;SDS011;5908;51.354;7.458;2023-04-03T00:00:37;15.97;;;10.33;;
11703;SDS011;5908;51.354;7.458;2023-04-03T00:03:04;76.57;;;45.70;;
11703;SDS011;5908;51.354;7.458;2023-04-03T00:05:31;60.43;;;38.30;;
11703;SDS011;5908;51.354;7.458;2023-04-03T00:07:59;15.73;;;10.63;;
11703;SDS011;5908;51.354;7.458;2023-04-03T00:10:27;43.10;;;27.83;;
11703;SDS011;5908;51.354;7.458;2023-04-03T00:12:54;32.80;;;19.90;;
11703;SDS011;5908;51.354;7.458;2023-04-03T00:15:21;16.43;;;12.80;;
11703;SDS011;5908;51.354;7.458;2023-04-03T00:17:47;46.13;;;29.60;;
11703;SDS011;5908;51.354;7.458;2023-04-03T00:20:14;106.27;;;63.40;;
11703;SDS011;5908;51.354;7.458;2023-04-03T00:22:41;27.53;;;19.13;;
11703;SDS011;5908;51.354;7.458;2023-04-03T00:25:09;18.90;;;12.53;;
11703;SDS011;5908;51.354;7.458;2023-04-03T00:27:36;16.10;;;11.43;;
11703;SDS011;5908;51.354;7.458;2023-04-03T00:30:04;13.60;;;9.27;;
11703;SDS011;5908;51.354;7.458;2023-04-03T00:32:32;11.70;;;9.30;;
11703;SDS011;5908;51.354;7.458;2023-04-03T00:34:59;12.73;;;9.67;;
11703;SDS011;5908;51.354;7.458;2023-04-03T00:37:26;13.97;;;10.40;;
11703;SDS011;5908;51.354;7.458;2023-04-03T00:39:53;11.67;;;9.77;;
11703;SDS011;5908;51.354;7.458;2023-04-03T00:42:21;13.33;;;10.33;;
11703;SDS011;5908;51.354;7.458;2023-04-03T00:48:08;12.27;;;9.77;;
11703;SDS011;5908;51.354;7.458;2023-04-03T00:50:39;13.70;;;10.80;;
11703;SDS011;5908;51.354;7.458;2023-04-03T00:53:09;14.00;;;10.30;;
11703;SDS011;5908;51.354;7.458;2023-04-03T00:55:39;14.57;;;10.40;;
11703;SDS011;5908;51.354;7.458;2023-04-03T00:58:08;16.17;;;11.50;;
11703;SDS011;5908;51.354;7.458;2023-04-03T01:00:37;17.27;;;10.27;;
11703;SDS011;5908;51.354;7.458;2023-04-03T01:03:06;17.43;;;12.73;;
11703;SDS011;5908;51.354;7.458;2023-04-03T01:05:33;13.13;;;10.63;;
11703;SDS011;5908;51.354;7.458;2023-04-03T01:07:59;13.57;;;10.90;;
11703;SDS011;5908;51.354;7.458;2023-04-03T01:10:27;13.97;;;10.57;;
11703;SDS011;5908;51.354;7.458;2023-04-03T01:12:54;14.33;;;10.80;;
11703;SDS011;5908;51.354;7.458;2023-04-03T01:15:23;15.77;;;11.50;;
11703;SDS011;5908;51.354;7.458;2023-04-03T01:17:53;16.33;;;12.40;;
11703;SDS011;5908;51.354;7.458;2023-04-03T01:23:33;20.43;;;14.27;;
11703;SDS011;5908;51.354;7.458;2023-04-03T01:26:11;25.37;;;16.90;;
11703;SDS011;5908;51.354;7.458;2023-04-03T01:28:38;30.03;;;19.00;;
11703;SDS011;5908;51.354;7.458;2023-04-03T01:31:10;43.83;;;26.70;;
11703;SDS011;5908;51.354;7.458;2023-04-03T01:33:42;17.13;;;12.87;;
11703;SDS011;5908;51.354;7.458;2023-04-03T01:36:13;26.70;;;17.47;;
11703;SDS011;5908;51.354;7.458;2023-04-03T01:38:41;75.80;;;44.00;;
11703;SDS011;5908;51.354;7.458;2023-04-03T01:41:08;73.20;;;44.40;;
11703;SDS011;5908;51.354;7.458;2023-04-03T01:43:35;29.13;;;18.63;;
11703;SDS011;5908;51.354;7.458;2023-04-03T01:46:02;17.17;;;11.03;;
11703;SDS011;5908;51.354;7.458;2023-04-03T01:48:28;16.83;;;12.57;;
11703;SDS011;5908;51.354;7.458;2023-04-03T01:50:56;21.53;;;15.63;;
11703;SDS011;5908;51.354;7.458;2023-04-03T01:53:23;36.43;;;20.80;;
11703;SDS011;5908;51.354;7.458;2023-04-03T01:55:50;38.30;;;24.73;;
11703;SDS011;5908;51.354;7.458;2023-04-03T01:58:17;15.77;;;11.43;;
11703;SDS011;5908;51.354;7.458;2023-04-03T02:00:44;15.80;;;11.23;;
11703;SDS011;5908;51.354;7.458;2023-04-03T02:03:10;13.90;;;10.90;;
11703;SDS011;5908;51.354;7.458;2023-04-03T02:05:37;12.97;;;10.43;;
11703;SDS011;5908;51.354;7.458;2023-04-03T02:08:06;16.93;;;11.37;;
11703;SDS011;5908;51.354;7.458;2023-04-03T02:10:32;16.67;;;11.20;;
11703;SDS011;5908;51.354;7.458;2023-04-03T02:12:59;15.93;;;11.93;;
11703;SDS011;5908;51.354;7.458;2023-04-03T02:15:26;16.97;;;11.53;;
11703;SDS011;5908;51.354;7.458;2023-04-03T02:17:53;15.30;;;11.27;;
11703;SDS011;5908;51.354;7.458;2023-04-03T02:20:19;15.90;;;11.30;;
11703;SDS011;5908;51.354;7.458;2023-04-03T02:22:46;14.27;;;10.50;;
11703;SDS011;5908;51.354;7.458;2023-04-03T02:25:15;15.60;;;11.37;;
11703;SDS011;5908;51.354;7.458;2023-04-03T02:27:42;17.37;;;12.47;;
11703;SDS011;5908;51.354;7.458;2023-04-03T02:30:09;16.60;;;11.97;;
11703;SDS011;5908;51.354;7.458;2023-04-03T02:32:36;18.23;;;13.00;;
11703;SDS011;5908;51.354;7.458;2023-04-03T02:35:03;16.70;;;11.87;;
11703;SDS011;5908;51.354;7.458;2023-04-03T02:37:31;45.73;;;28.00;;
11703;SDS011;5908;51.354;7.458;2023-04-03T02:39:57;75.93;;;45.20;;
11703;SDS011;5908;51.354;7.458;2023-04-03T02:42:25;39.57;;;23.63;;
11703;SDS011;5908;51.354;7.458;2023-04-03T02:44:52;18.43;;;12.97;;
11703;SDS011;5908;51.354;7.458;2023-04-03T02:47:19;20.17;;;13.70;;
11703;SDS011;5908;51.354;7.458;2023-04-03T02:49:45;18.73;;;13.13;;
11703;SDS011;5908;51.354;7.458;2023-04-03T02:52:12;21.10;;;15.03;;
11703;SDS011;5908;51.354;7.458;2023-04-03T02:54:39;27.57;;;18.30;;
11703;SDS011;5908;51.354;7.458;2023-04-03T02:57:06;36.97;;;22.67;;
11703;SDS011;5908;51.354;7.458;2023-04-03T02:59:35;14.83;;;11.40;;
11703;SDS011;5908;51.354;7.458;2023-04-03T03:02:02;14.80;;;10.90;;
11703;SDS011;5908;51.354;7.458;2023-04-03T03:04:28;17.67;;;11.17;;
11703;SDS011;5908;51.354;7.458;2023-04-03T03:06:55;14.20;;;10.80;;
11703;SDS011;5908;51.354;7.458;2023-04-03T03:09:22;14.13;;;9.97;;
11703;SDS011;5908;51.354;7.458;2023-04-03T03:11:50;60.70;;;35.20;;
11703;SDS011;5908;51.354;7.458;2023-04-03T03:14:16;40.73;;;25.00;;
11703;SDS011;5908;51.354;7.458;2023-04-03T03:16:44;26.13;;;16.10;;
11703;SDS011;5908;51.354;7.458;2023-04-03T03:19:11;12.53;;;9.57;;
11703;SDS011;5908;51.354;7.458;2023-04-03T03:21:38;11.57;;;9.10;;
11703;SDS011;5908;51.354;7.458;2023-04-03T03:24:05;11.50;;;9.10;;
11703;SDS011;5908;51.354;7.458;2023-04-03T03:26:32;17.83;;;12.37;;
11703;SDS011;5908;51.354;7.458;2023-04-03T03:28:58;15.70;;;11.00;;
11703;SDS011;5908;51.354;7.458;2023-04-03T03:31:25;21.87;;;12.77;;
11703;SDS011;5908;51.354;7.458;2023-04-03T03:33:53;21.77;;;12.63;;
11703;SDS011;5908;51.354;7.458;2023-04-03T03:36:20;15.37;;;10.30;;
11703;SDS011;5908;51.354;7.458;2023-04-03T03:38:47;18.17;;;10.90;;
11703;SDS011;5908;51.354;7.458;2023-04-03T03:41:13;20.07;;;12.73;;
11703;SDS011;5908;51.354;7.458;2023-04-03T03:43:40;17.17;;;11.93;;
11703;SDS011;5908;51.354;7.458;2023-04-03T03:46:07;16.07;;;11.67;;
11703;SDS011;5908;51.354;7.458;2023-04-03T03:48:34;20.93;;;13.10;;
11703;SDS011;5908;51.354;7.458;2023-04-03T03:51:02;18.23;;;12.73;;
11703;SDS011;5908;51.354;7.458;2023-04-03T03:53:29;19.37;;;12.20;;
11703;SDS011;5908;51.354;7.458;2023-04-03T03:55:55;21.27;;;13.03;;
11703;SDS011;5908;51.354;7.458;2023-04-03T03:58:22;20.40;;;12.93;;
11703;SDS011;5908;51.354;7.458;2023-04-03T04:00:49;20.07;;;13.00;;
11703;SDS011;5908;51.354;7.458;2023-04-03T04:03:15;19.93;;;13.40;;
11703;SDS011;5908;51.354;7.458;2023-04-03T04:05:42;18.40;;;13.13;;
11703;SDS011;5908;51.354;7.458;2023-04-03T04:08:10;17.30;;;12.07;;
11703;SDS011;5908;51.354;7.458;2023-04-03T04:10:37;20.87;;;13.77;;
11703;SDS011;5908;51.354;7.458;2023-04-03T04:13:05;20.40;;;14.20;;
11703;SDS011;5908;51.354;7.458;2023-04-03T04:15:31;21.07;;;13.93;;
11703;SDS011;5908;51.354;7.458;2023-04-03T04:17:58;19.57;;;13.83;;
11703;SDS011;5908;51.354;7.458;2023-04-03T04:20:25;21.83;;;13.83;;
11703;SDS011;5908;51.354;7.458;2023-04-03T04:22:52;20.30;;;13.97;;
11703;SDS011;5908;51.354;7.458;2023-04-03T04:25:20;19.77;;;13.37;;
11703;SDS011;5908;51.354;7.458;2023-04-03T04:27:46;18.50;;;12.27;;
11703;SDS011;5908;51.354;7.458;2023-04-03T04:30:13;20.13;;;13.93;;
11703;SDS011;5908;51.354;7.458;2023-04-03T04:32:40;20.63;;;12.77;;
11703;SDS011;5908;51.354;7.458;2023-04-03T04:35:07;22.50;;;12.93;;
11703;SDS011;5908;51.354;7.458;2023-04-03T04:37:34;24.13;;;11.93;;
11703;SDS011;5908;51.354;7.458;2023-04-03T04:40:01;19.10;;;12.07;;
11703;SDS011;5908;51.354;7.458;2023-04-03T04:42:29;16.90;;;11.83;;
11703;SDS011;5908;51.354;7.458;2023-04-03T04:44:56;18.63;;;11.90;;
11703;SDS011;5908;51.354;7.458;2023-04-03T04:47:23;18.57;;;12.13;;
11703;SDS011;5908;51.354;7.458;2023-04-03T04:49:50;17.20;;;11.27;;
11703;SDS011;5908;51.354;7.458;2023-04-03T04:52:17;14.97;;;10.97;;
11703;SDS011;5908;51.354;7.458;2023-04-03T04:54:44;16.40;;;11.27;;
11703;SDS011;5908;51.354;7.458;2023-04-03T04:57:11;20.97;;;11.40;;
11703;SDS011;5908;51.354;7.458;2023-04-03T04:59:39;18.83;;;11.40;;
11703;SDS011;5908;51.354;7.458;2023-04-03T05:02:05;15.20;;;11.10;;
11703;SDS011;5908;51.354;7.458;2023-04-03T05:04:32;16.57;;;10.70;;
11703;SDS011;5908;51.354;7.458;2023-04-03T05:06:59;15.77;;;11.07;;
11703;SDS011;5908;51.354;7.458;2023-04-03T05:09:26;17.53;;;11.20;;
11703;SDS011;5908;51.354;7.458;2023-04-03T05:11:53;15.70;;;11.13;;
11703;SDS011;5908;51.354;7.458;2023-04-03T05:14:20;17.80;;;10.70;;
11703;SDS011;5908;51.354;7.458;2023-04-03T05:16:48;18.47;;;12.13;;
11703;SDS011;5908;51.354;7.458;2023-04-03T05:19:17;16.07;;;11.07;;
11703;SDS011;5908;51.354;7.458;2023-04-03T05:21:44;15.50;;;10.60;;
11703;SDS011;5908;51.354;7.458;2023-04-03T05:24:11;15.50;;;10.07;;
11703;SDS011;5908;51.354;7.458;2023-04-03T05:26:38;13.93;;;9.83;;
11703;SDS011;5908;51.354;7.458;2023-04-03T05:29:04;16.50;;;9.53;;
11703;SDS011;5908;51.354;7.458;2023-04-03T05:31:31;15.67;;;9.20;;
11703;SDS011;5908;51.354;7.458;2023-04-03T05:33:59;16.93;;;8.43;;
11703;SDS011;5908;51.354;7.458;2023-04-03T05:36:26;15.33;;;8.03;;
11703;SDS011;5908;51.354;7.458;2023-04-03T05:38:53;14.10;;;8.87;;
11703;SDS011;5908;51.354;7.458;2023-04-03T05:41:21;14.30;;;8.43;;
11703;SDS011;5908;51.354;7.458;2023-04-03T05:43:48;15.67;;;8.40;;
11703;SDS011;5908;51.354;7.458;2023-04-03T05:46:15;13.03;;;8.17;;
11703;SDS011;5908;51.354;7.458;2023-04-03T05:48:44;14.20;;;7.90;;
11703;SDS011;5908;51.354;7.458;2023-04-03T05:51:14;10.27;;;5.70;;
11703;SDS011;5908;51.354;7.458;2023-04-03T05:53:42;16.07;;;7.73;;
11703;SDS011;5908;51.354;7.458;2023-04-03T05:56:10;23.63;;;12.93;;
11703;SDS011;5908;51.354;7.458;2023-04-03T05:58:37;12.00;;;6.27;;
11703;SDS011;5908;51.354;7.458;2023-04-03T06:01:04;9.03;;;6.10;;
11703;SDS011;5908;51.354;7.458;2023-04-03T06:03:32;15.60;;;7.80;;
11703;SDS011;5908;51.354;7.458;2023-04-03T06:06:00;13.10;;;7.07;;
11703;SDS011;5908;51.354;7.458;2023-04-03T06:08:30;11.53;;;6.00;;
11703;SDS011;5908;51.354;7.458;2023-04-03T06:10:57;15.23;;;5.30;;
11703;SDS011;5908;51.354;7.458;2023-04-03T06:13:24;10.67;;;4.83;;
11703;SDS011;5908;51.354;7.458;2023-04-03T06:15:51;7.80;;;4.73;;
11703;SDS011;5908;51.354;7.458;2023-04-03T06:18:17;10.77;;;4.30;;
11703;SDS011;5908;51.354;7.458;2023-04-03T06:20:45;8.53;;;4.30;;
11703;SDS011;5908;51.354;7.458;2023-04-03T06:23:11;9.57;;;4.80;;
11703;SDS011;5908;51.354;7.458;2023-04-03T06:25:39;10.50;;;4.20;;
11703;SDS011;5908;51.354;7.458;2023-04-03T06:28:07;7.10;;;3.83;;
11703;SDS011;5908;51.354;7.458;2023-04-03T06:30:35;7.47;;;3.57;;
11703;SDS011;5908;51.354;7.458;2023-04-03T06:33:02;8.07;;;3.77;;
11703;SDS011;5908;51.354;7.458;2023-04-03T06:35:28;9.40;;;3.90;;
11703;SDS011;5908;51.354;7.458;2023-04-03T06:37:55;8.63;;;3.93;;
11703;SDS011;5908;51.354;7.458;2023-04-03T06:40:23;8.00;;;3.97;;
11703;SDS011;5908;51.354;7.458;2023-04-03T06:42:52;9.93;;;3.63;;
11703;SDS011;5908;51.354;7.458;2023-04-03T06:45:19;5.77;;;3.40;;
11703;SDS011;5908;51.354;7.458;2023-04-03T06:47:46;7.87;;;3.40;;
11703;SDS011;5908;51.354;7.458;2023-04-03T06:50:13;6.23;;;3.03;;
11703;SDS011;5908;51.354;7.458;2023-04-03T06:52:40;5.07;;;3.53;;
11703;SDS011;5908;51.354;7.458;2023-04-03T06:55:08;7.80;;;3.53;;
11703;SDS011;5908;51.354;7.458;2023-04-03T06:57:35;7.57;;;3.50;;
11703;SDS011;5908;51.354;7.458;2023-04-03T07:00:04;7.70;;;3.50;;
11703;SDS011;5908;51.354;7.458;2023-04-03T07:02:32;8.07;;;3.70;;
11703;SDS011;5908;51.354;7.458;2023-04-03T07:04:58;7.37;;;3.57;;
11703;SDS011;5908;51.354;7.458;2023-04-03T07:07:25;49.57;;;26.47;;
11703;SDS011;5908;51.354;7.458;2023-04-03T07:09:52;7.17;;;3.30;;
11703;SDS011;5908;51.354;7.458;2023-04-03T07:12:18;8.20;;;3.33;;
11703;SDS011;5908;51.354;7.458;2023-04-03T07:14:45;7.07;;;3.50;;
11703;SDS011;5908;51.354;7.458;2023-04-03T07:17:13;8.87;;;4.23;;
11703;SDS011;5908;51.354;7.458;2023-04-03T07:19:40;7.73;;;3.27;;
11703;SDS011;5908;51.354;7.458;2023-04-03T07:22:07;6.17;;;3.10;;
11703;SDS011;5908;51.354;7.458;2023-04-03T07:24:36;8.07;;;2.83;;
11703;SDS011;5908;51.354;7.458;2023-04-03T07:27:02;6.90;;;3.10;;
11703;SDS011;5908;51.354;7.458;2023-04-03T07:29:29;7.97;;;3.10;;
11703;SDS011;5908;51.354;7.458;2023-04-03T07:31:56;5.40;;;2.67;;
11703;SDS011;5908;51.354;7.458;2023-04-03T07:34:24;6.67;;;2.50;;
11703;SDS011;5908;51.354;7.458;2023-04-03T07:36:51;6.97;;;2.87;;
11703;SDS011;5908;51.354;7.458;2023-04-03T07:39:18;5.73;;;2.57;;
11703;SDS011;5908;51.354;7.458;2023-04-03T07:41:44;6.10;;;2.60;;
11703;SDS011;5908;51.354;7.458;2023-04-03T07:44:11;8.30;;;2.63;;
11703;SDS011;5908;51.354;7.458;2023-04-03T07:46:38;6.90;;;2.63;;
11703;SDS011;5908;51.354;7.458;2023-04-03T07:49:05;6.00;;;2.50;;
11703;SDS011;5908;51.354;7.458;2023-04-03T07:51:33;6.03;;;2.40;;
11703;SDS011;5908;51.354;7.458;2023-04-03T07:54:00;6.90;;;2.40;;
11703;SDS011;5908;51.354;7.458;2023-04-03T07:56:27;6.40;;;2.30;;
11703;SDS011;5908;51.354;7.458;2023-04-03T07:58:54;4.73;;;2.50;;
11703;SDS011;5908;51.354;7.458;2023-04-03T08:01:20;6.30;;;2.30;;
11703;SDS011;5908;51.354;7.458;2023-04-03T08:03:47;4.90;;;2.40;;
11703;SDS011;5908;51.354;7.458;2023-04-03T08:06:14;9.33;;;2.30;;
11703;SDS011;5908;51.354;7.458;2023-04-03T08:08:42;5.53;;;2.40;;
11703;SDS011;5908;51.354;7.458;2023-04-03T08:11:09;4.03;;;2.20;;
11703;SDS011;5908;51.354;7.458;2023-04-03T08:13:36;4.93;;;2.17;;
11703;SDS011;5908;51.354;7.458;2023-04-03T08:16:07;4.77;;;1.93;;
11703;SDS011;5908;51.354;7.458;2023-04-03T08:18:36;5.80;;;2.00;;
11703;SDS011;5908;51.354;7.458;2023-04-03T08:21:05;4.27;;;2.27;;
11703;SDS011;5908;51.354;7.458;2023-04-03T08:23:33;4.90;;;2.33;;
11703;SDS011;5908;51.354;7.458;2023-04-03T08:26:05;4.03;;;2.13;;
11703;SDS011;5908;51.354;7.458;2023-04-03T08:28:33;4.93;;;1.97;;
11703;SDS011;5908;51.354;7.458;2023-04-03T08:31:02;6.33;;;2.33;;
11703;SDS011;5908;51.354;7.458;2023-04-03T08:33:30;6.23;;;2.70;;
11703;SDS011;5908;51.354;7.458;2023-04-03T08:35:57;6.33;;;2.30;;
11703;SDS011;5908;51.354;7.458;2023-04-03T08:38:24;4.33;;;1.70;;
11703;SDS011;5908;51.354;7.458;2023-04-03T08:40:59;5.53;;;2.20;;
11703;SDS011;5908;51.354;7.458;2023-04-03T08:43:31;3.63;;;2.17;;
11703;SDS011;5908;51.354;7.458;2023-04-03T08:46:06;5.23;;;2.03;;
11703;SDS011;5908;51.354;7.458;2023-04-03T08:48:40;3.80;;;1.70;;
11703;SDS011;5908;51.354;7.458;2023-04-03T08:51:10;6.47;;;2.10;;
11703;SDS011;5908;51.354;7.458;2023-04-03T08:53:40;4.37;;;1.90;;
11703;SDS011;5908;51.354;7.458;2023-04-03T08:56:11;4.93;;;1.80;;
11703;SDS011;5908;51.354;7.458;2023-04-03T08:58:42;5.80;;;2.10;;
11703;SDS011;5908;51.354;7.458;2023-04-03T09:01:17;3.50;;;1.60;;
11703;SDS011;5908;51.354;7.458;2023-04-03T09:03:45;5.80;;;2.40;;
11703;SDS011;5908;51.354;7.458;2023-04-03T09:06:13;7.00;;;2.03;;
11703;SDS011;5908;51.354;7.458;2023-04-03T09:08:45;6.60;;;2.20;;
11703;SDS011;5908;51.354;7.458;2023-04-03T09:11:16;3.63;;;1.83;;
11703;SDS011;5908;51.354;7.458;2023-04-03T09:13:52;4.43;;;2.00;;
11703;SDS011;5908;51.354;7.458;2023-04-03T09:16:28;4.00;;;1.77;;
11703;SDS011;5908;51.354;7.458;2023-04-03T09:19:02;5.50;;;2.10;;
11703;SDS011;5908;51.354;7.458;2023-04-03T09:21:38;5.33;;;2.13;;
11703;SDS011;5908;51.354;7.458;2023-04-03T09:24:07;3.70;;;1.90;;
11703;SDS011;5908;51.354;7.458;2023-04-03T09:26:39;6.67;;;2.87;;
11703;SDS011;5908;51.354;7.458;2023-04-03T09:29:12;4.00;;;1.80;;
11703;SDS011;5908;51.354;7.458;2023-04-03T09:31:43;4.27;;;1.90;;
11703;SDS011;5908;51.354;7.458;2023-04-03T09:34:13;4.20;;;2.10;;
11703;SDS011;5908;51.354;7.458;2023-04-03T09:36:47;5.67;;;2.30;;
11703;SDS011;5908;51.354;7.458;2023-04-03T09:39:16;5.50;;;2.10;;
11703;SDS011;5908;51.354;7.458;2023-04-03T09:41:55;7.23;;;2.17;;
11703;SDS011;5908;51.354;7.458;2023-04-03T09:44:26;3.03;;;1.60;;
11703;SDS011;5908;51.354;7.458;2023-04-03T09:46:54;5.60;;;2.27;;
11703;SDS011;5908;51.354;7.458;2023-04-03T09:49:21;3.73;;;1.60;;
11703;SDS011;5908;51.354;7.458;2023-04-03T09:51:49;2.67;;;1.30;;
11703;SDS011;5908;51.354;7.458;2023-04-03T09:54:29;2.03;;;1.00;;
11703;SDS011;5908;51.354;7.458;2023-04-03T09:56:59;3.20;;;1.40;;
11703;SDS011;5908;51.354;7.458;2023-04-03T09:59:31;2.13;;;1.37;;
11703;SDS011;5908;51.354;7.458;2023-04-03T10:01:59;1.53;;;1.10;;
11703;SDS011;5908;51.354;7.458;2023-04-03T10:04:37;3.00;;;1.00;;
11703;SDS011;5908;51.354;7.458;2023-04-03T10:09:55;2.67;;;1.40;;
11703;SDS011;5908;51.354;7.458;2023-04-03T10:12:23;1.80;;;1.10;;
11703;SDS011;5908;51.354;7.458;2023-04-03T10:14:55;1.47;;;0.97;;
11703;SDS011;5908;51.354;7.458;2023-04-03T10:17:26;1.90;;;0.87;;
11703;SDS011;5908;51.354;7.458;2023-04-03T10:20:02;2.50;;;1.40;;
11703;SDS011;5908;51.354;7.458;2023-04-03T10:22:37;3.37;;;1.30;;
11703;SDS011;5908;51.354;7.458;2023-04-03T10:25:15;3.20;;;1.30;;
11703;SDS011;5908;51.354;7.458;2023-04-03T10:27:49;3.97;;;2.10;;
11703;SDS011;5908;51.354;7.458;2023-04-03T10:30:27;2.60;;;1.00;;
11703;SDS011;5908;51.354;7.458;2023-04-03T10:33:03;3.23;;;1.20;;
11703;SDS011;5908;51.354;7.458;2023-04-03T10:36:02;3.00;;;2.03;;
11703;SDS011;5908;51.354;7.458;2023-04-03T10:38:40;14.10;;;6.97;;
11703;SDS011;5908;51.354;7.458;2023-04-03T10:41:16;5.23;;;3.00;;
11703;SDS011;5908;51.354;7.458;2023-04-03T10:43:50;1.77;;;1.10;;
11703;SDS011;5908;51.354;7.458;2023-04-03T10:46:27;1.10;;;0.80;;
11703;SDS011;5908;51.354;7.458;2023-04-03T10:49:03;1.37;;;0.97;;
11703;SDS011;5908;51.354;7.458;2023-04-03T10:51:41;4.10;;;1.27;;
11703;SDS011;5908;51.354;7.458;2023-04-03T10:54:11;1.87;;;1.13;;
11703;SDS011;5908;51.354;7.458;2023-04-03T10:56:39;2.60;;;1.10;;
11703;SDS011;5908;51.354;7.458;2023-04-03T10:59:16;1.93;;;1.07;;
11703;SDS011;5908;51.354;7.458;2023-04-03T11:01:51;2.63;;;1.10;;
11703;SDS011;5908;51.354;7.458;2023-04-03T11:04:24;3.13;;;1.30;;
11703;SDS011;5908;51.354;7.458;2023-04-03T11:06:57;1.53;;;1.00;;
11703;SDS011;5908;51.354;7.458;2023-04-03T11:09:28;2.87;;;1.30;;
11703;SDS011;5908;51.354;7.458;2023-04-03T11:12:00;2.50;;;1.07;;
11703;SDS011;5908;51.354;7.458;2023-04-03T11:14:31;3.73;;;1.30;;
11703;SDS011;5908;51.354;7.458;2023-04-03T11:17:04;4.83;;;1.40;;
11703;SDS011;5908;51.354;7.458;2023-04-03T11:19:38;1.87;;;1.10;;
11703;SDS011;5908;51.354;7.458;2023-04-03T11:22:13;1.67;;;1.13;;
11703;SDS011;5908;51.354;7.458;2023-04-03T11:24:54;1.53;;;0.90;;
11703;SDS011;5908;51.354;7.458;2023-04-03T11:27:25;1.90;;;0.90;;
11703;SDS011;5908;51.354;7.458;2023-04-03T11:29:57;1.70;;;1.00;;
11703;SDS011;5908;51.354;7.458;2023-04-03T11:32:30;2.63;;;1.30;;
11703;SDS011;5908;51.354;7.458;2023-04-03T11:35:19;6.17;;;3.67;;
11703;SDS011;5908;51.354;7.458;2023-04-03T11:37:47;1.97;;;1.07;;
11703;SDS011;5908;51.354;7.458;2023-04-03T11:40:20;1.43;;;1.10;;
11703;SDS011;5908;51.354;7.458;2023-04-03T11:42:52;1.47;;;1.07;;
11703;SDS011;5908;51.354;7.458;2023-04-03T11:45:35;1.50;;;0.90;;
11703;SDS011;5908;51.354;7.458;2023-04-03T11:48:06;3.17;;;1.93;;
11703;SDS011;5908;51.354;7.458;2023-04-03T11:50:57;4.60;;;2.33;;
11703;SDS011;5908;51.354;7.458;2023-04-03T11:53:29;2.53;;;1.20;;
11703;SDS011;5908;51.354;7.458;2023-04-03T11:56:02;1.73;;;0.97;;
11703;SDS011;5908;51.354;7.458;2023-04-03T12:01:48;2.23;;;1.10;;
11703;SDS011;5908;51.354;7.458;2023-04-03T12:04:18;5.17;;;1.30;;
11703;SDS011;5908;51.354;7.458;2023-04-03T12:06:50;1.40;;;1.17;;
11703;SDS011;5908;51.354;7.458;2023-04-03T12:09:31;1.50;;;1.00;;
11703;SDS011;5908;51.354;7.458;2023-04-03T12:12:30;2.33;;;1.20;;
11703;SDS011;5908;51.354;7.458;2023-04-03T12:15:12;2.20;;;1.00;;
11703;SDS011;5908;51.354;7.458;2023-04-03T12:17:45;2.07;;;1.00;;
11703;SDS011;5908;51.354;7.458;2023-04-03T12:23:24;5.50;;;1.57;;
11703;SDS011;5908;51.354;7.458;2023-04-03T12:25:53;2.07;;;1.10;;
11703;SDS011;5908;51.354;7.458;2023-04-03T12:28:29;1.53;;;1.00;;
11703;SDS011;5908;51.354;7.458;2023-04-03T12:31:02;4.43;;;1.33;;
11703;SDS011;5908;51.354;7.458;2023-04-03T12:33:34;1.93;;;1.10;;
11703;SDS011;5908;51.354;7.458;2023-04-03T12:36:26;2.97;;;1.33;;
11703;SDS011;5908;51.354;7.458;2023-04-03T12:39:14;1.67;;;1.00;;
11703;SDS011;5908;51.354;7.458;2023-04-03T12:42:18;4.67;;;1.33;;
11703;SDS011;5908;51.354;7.458;2023-04-03T12:45:08;2.20;;;1.37;;
11703;SDS011;5908;51.354;7.458;2023-04-03T12:47:44;2.40;;;1.13;;
11703;SDS011;5908;51.354;7.458;2023-04-03T12:50:18;2.40;;;1.30;;
11703;SDS011;5908;51.354;7.458;2023-04-03T12:52:51;2.57;;;1.23;;
11703;SDS011;5908;51.354;7.458;2023-04-03T12:55:23;2.00;;;1.00;;
11703;SDS011;5908;51.354;7.458;2023-04-03T12:57:51;1.97;;;1.20;;
11703;SDS011;5908;51.354;7.458;2023-04-03T13:00:20;3.67;;;1.43;;
11703;SDS011;5908;51.354;7.458;2023-04-03T13:03:18;3.07;;;1.40;;
11703;SDS011;5908;51.354;7.458;2023-04-03T13:05:48;3.47;;;1.50;;
11703;SDS011;5908;51.354;7.458;2023-04-03T13:08:15;2.37;;;1.40;;
11703;SDS011;5908;51.354;7.458;2023-04-03T13:10:49;1.97;;;1.20;;
11703;SDS011;5908;51.354;7.458;2023-04-03T13:13:20;2.97;;;1.43;;
11703;SDS011;5908;51.354;7.458;2023-04-03T13:15:48;2.53;;;1.20;;
11703;SDS011;5908;51.354;7.458;2023-04-03T13:18:23;3.07;;;1.37;;
11703;SDS011;5908;51.354;7.458;2023-04-03T13:20:51;2.63;;;1.37;;
11703;SDS011;5908;51.354;7.458;2023-04-03T13:23:19;6.83;;;1.67;;
11703;SDS011;5908;51.354;7.458;2023-04-03T13:25:49;5.17;;;1.77;;
11703;SDS011;5908;51.354;7.458;2023-04-03T13:28:17;3.53;;;1.70;;
11703;SDS011;5908;51.354;7.458;2023-04-03T13:30:54;4.00;;;1.40;;
11703;SDS011;5908;51.354;7.458;2023-04-03T13:33:25;5.30;;;1.60;;
11703;SDS011;5908;51.354;7.458;2023-04-03T13:35:56;2.53;;;1.13;;
11703;SDS011;5908;51.354;7.458;2023-04-03T13:38:26;3.50;;;1.60;;
11703;SDS011;5908;51.354;7.458;2023-04-03T13:40:58;2.10;;;1.40;;
11703;SDS011;5908;51.354;7.458;2023-04-03T13:43:28;2.23;;;1.30;;
11703;SDS011;5908;51.354;7.458;2023-04-03T13:45:59;3.03;;;1.37;;
11703;SDS011;5908;51.354;7.458;2023-04-03T13:48:34;5.23;;;1.60;;
11703;SDS011;5908;51.354;7.458;2023-04-03T13:51:04;2.23;;;1.30;;
11703;SDS011;5908;51.354;7.458;2023-04-03T13:53:33;3.70;;;1.40;;
11703;SDS011;5908;51.354;7.458;2023-04-03T13:56:09;4.90;;;1.40;;
11703;SDS011;5908;51.354;7.458;2023-04-03T13:58:52;3.07;;;1.60;;
11703;SDS011;5908;51.354;7.458;2023-04-03T14:01:25;2.47;;;1.37;;
11703;SDS011;5908;51.354;7.458;2023-04-03T14:03:59;5.33;;;1.53;;
11703;SDS011;5908;51.354;7.458;2023-04-03T14:06:28;2.10;;;1.40;;
11703;SDS011;5908;51.354;7.458;2023-04-03T14:08:55;2.63;;;1.30;;
11703;SDS011;5908;51.354;7.458;2023-04-03T14:11:24;2.93;;;1.40;;
11703;SDS011;5908;51.354;7.458;2023-04-03T14:13:54;2.17;;;1.10;;
11703;SDS011;5908;51.354;7.458;2023-04-03T14:16:25;3.20;;;1.40;;
11703;SDS011;5908;51.354;7.458;2023-04-03T14:18:54;2.67;;;1.50;;
11703;SDS011;5908;51.354;7.458;2023-04-03T14:21:21;4.60;;;1.53;;
11703;SDS011;5908;51.354;7.458;2023-04-03T14:23:49;3.33;;;1.17;;
11703;SDS011;5908;51.354;7.458;2023-04-03T14:26:17;2.83;;;1.33;;
11703;SDS011;5908;51.354;7.458;2023-04-03T14:28:48;2.60;;;1.30;;
11703;SDS011;5908;51.354;7.458;2023-04-03T14:31:16;3.43;;;1.40;;
11703;SDS011;5908;51.354;7.458;2023-04-03T14:33:44;3.10;;;1.20;;
11703;SDS011;5908;51.354;7.458;2023-04-03T14:36:12;2.07;;;1.33;;
11703;SDS011;5908;51.354;7.458;2023-04-03T14:38:41;6.10;;;1.70;;
11703;SDS011;5908;51.354;7.458;2023-04-03T14:41:10;1.80;;;1.03;;
11703;SDS011;5908;51.354;7.458;2023-04-03T14:43:39;2.33;;;1.20;;
11703;SDS011;5908;51.354;7.458;2023-04-03T14:46:10;2.83;;;1.43;;
11703;SDS011;5908;51.354;7.458;2023-04-03T14:48:40;3.63;;;1.13;;
11703;SDS011;5908;51.354;7.458;2023-04-03T14:51:08;3.03;;;1.60;;
11703;SDS011;5908;51.354;7.458;2023-04-03T14:53:36;3.03;;;1.40;;
11703;SDS011;5908;51.354;7.458;2023-04-03T14:56:04;3.20;;;1.30;;
11703;SDS011;5908;51.354;7.458;2023-04-03T14:58:36;4.37;;;1.70;;
11703;SDS011;5908;51.354;7.458;2023-04-03T15:01:03;2.70;;;1.50;;
11703;SDS011;5908;51.354;7.458;2023-04-03T15:03:31;4.07;;;1.33;;
11703;SDS011;5908;51.354;7.458;2023-04-03T15:05:58;4.13;;;1.63;;
11703;SDS011;5908;51.354;7.458;2023-04-03T15:08:25;3.70;;;1.47;;
11703;SDS011;5908;51.354;7.458;2023-04-03T15:10:55;1.83;;;1.23;;
11703;SDS011;5908;51.354;7.458;2023-04-03T15:13:22;4.37;;;1.40;;
11703;SDS011;5908;51.354;7.458;2023-04-03T15:15:49;4.97;;;1.67;;
11703;SDS011;5908;51.354;7.458;2023-04-03T15:18:18;3.30;;;1.37;;
11703;SDS011;5908;51.354;7.458;2023-04-03T15:20:49;2.60;;;1.50;;